Weather reports worldwide

Advertisment
Rodkallen, Sweden (2188): temperature & dewpoint: 18.06.2017 05:00:00 - 24.06.2017 05:00:00 (CEST)Rodkallen, Sweden (2188): wind speed & gusts: 18.06.2017 05:00:00 - 24.06.2017 05:00:00 (CEST)Rodkallen, Sweden (2188): wind direction: 18.06.2017 05:00:00 - 24.06.2017 05:00:00 (CEST)Rodkallen, Sweden (2188): visibility: 18.06.2017 05:00:00 - 24.06.2017 05:00:00 (CEST)Rodkallen, Sweden (2188): precipitation: 18.06.2017 05:00:00 - 24.06.2017 05:00:00 (CEST)
Date & Time tt [°C] td [°C] ff [km/h] ff [kn] fx [km/h] fx [kn] dd vv [km] rr [mm]
24.06.2017 05:00:00 9,4 8,2 13 7 16 8 SE 49 0,0
24.06.2017 04:00:00 9,8 7,9 11 6 16 9 S 48 0,0
24.06.2017 03:00:00 9,9 7,7 13 7 16 8 S 50 0,0
24.06.2017 02:00:00 10,2 7,6 10 5 16 8 S 50 0,0
24.06.2017 01:00:00 10,4 7,5 12 7 18 10 SSW 50 0,0
24.06.2017 00:00:00 10,1 7,2 17 9 21 11 SSW 50 0,0
23.06.2017 23:00:00 9,9 7,7 14 8 19 11 SSW 50 0,0
23.06.2017 22:00:00 9,7 7,8 16 9 21 11 SSW 50 0,0
23.06.2017 21:00:00 9,8 6,9 19 10 21 12 SSW 50 0,0
23.06.2017 20:00:00 9,7 6,8 18 10 22 12 SSW 50 0,0
23.06.2017 19:00:00 10,2 6,9 16 9 19 11 S 44 0,0
23.06.2017 18:00:00 10,6 6,2 12 7 16 9 S 40 0,0
23.06.2017 17:00:00 10,5 5,5 9 5 15 8 SSE 42 0,0
23.06.2017 16:00:00 10,6 5,4 11 6 16 8 S 43 0,0
23.06.2017 15:00:00 10,4 5,8 10 5 13 7 SSE 44 0,0
23.06.2017 14:00:00 11,1 4,5 7 4 13 7 NNE 33 0,0
23.06.2017 13:00:00 10,3 4,4 9 5 17 9 N 38 0,0
23.06.2017 12:00:00 9,4 4,8 13 7 20 11 N 49 0,0
23.06.2017 11:00:00 8,9 4,7 14 8 23 13 N 49 0,0
23.06.2017 10:00:00 8,7 4,9 21 12 29 16 N 50 0,0
23.06.2017 09:00:00 8,4 5,0 20 11 28 15 NNW 49 0,0
23.06.2017 08:00:00 8,2 4,8 18 10 28 15 NNW 50 0,0
23.06.2017 07:00:00 8,2 5,0 18 10 34 18 NNW 50 0,0
23.06.2017 06:00:00 8,0 4,8 22 12 31 17 NNW 50 0,0
23.06.2017 05:00:00 7,7 5,0 19 10 34 19 NNW 50 0,0
23.06.2017 04:00:00 7,7 5,0 22 12 31 17 NNW 50 0,0
23.06.2017 03:00:00 8,0 4,8 20 11 35 19 NNW 50 0,0
23.06.2017 02:00:00 8,3 4,7 23 13 37 20 NNW 50 0,0
23.06.2017 01:00:00 8,8 5,4 22 12 37 20 NNW 50 0,0
23.06.2017 00:00:00 9,0 4,6 21 12 36 19 NNW 50 0,0
22.06.2017 23:00:00 9,1 4,7 23 13 34 19 NNW 50 0,0
22.06.2017 22:00:00 9,1 4,9 22 12 33 18 NNW 50 0,0
22.06.2017 21:00:00 9,2 5,2 26 14 37 20 N 50 0,0
22.06.2017 20:00:00 8,8 4,8 21 11 38 20 NNW 50 0,0
22.06.2017 19:00:00 9,2 4,6 27 15 41 22 NNW 50 0,0
22.06.2017 18:00:00 9,1 4,9 29 15 39 21 N 50 0,0
22.06.2017 17:00:00 9,4 4,2 25 13 39 21 NNW 50 0,0
22.06.2017 16:00:00 9,0 5,0 24 13 43 23 NNW 50 0,2
22.06.2017 15:00:00 9,1 4,7 24 13 38 20 NNW 42 0,2
22.06.2017 14:00:00 8,2 5,0 25 13 41 22 N 10 0,0
22.06.2017 13:00:00 8,8 4,4 24 13 37 20 NNW 36 0,1
22.06.2017 12:00:00 8,3 4,5 26 14 39 21 NNW 30 0,1
22.06.2017 11:00:00 7,2 4,5 27 14 41 22 NNW 15 0,1
22.06.2017 10:00:00 7,5 3,5 24 13 40 22 NNW 34 0,0
22.06.2017 09:00:00 7,0 2,9 28 15 46 25 NW 50 0,0
22.06.2017 08:00:00 6,9 2,8 26 14 43 23 NW 45 0,0
22.06.2017 07:00:00 6,8 2,7 29 16 43 23 NW 50 0,0
22.06.2017 06:00:00 6,7 3,0 27 15 42 23 NW 50 0,0
22.06.2017 05:00:00 6,5 2,0 28 15 44 24 NW 50 0,0
22.06.2017 04:00:00 6,3 1,8 29 15 44 24 NW 50 0,0
22.06.2017 03:00:00 6,5 2,0 25 14 45 25 NNW 50 0,0
22.06.2017 02:00:00 7,1 2,2 24 13 41 22 NNW 50 0,0
22.06.2017 01:00:00 8,5 2,7 27 15 38 21 NNW 50 0,0
22.06.2017 00:00:00 9,6 3,6 26 14 36 20 N 50 0,0
21.06.2017 23:00:00 10,1 4,9 19 11 31 17 N 50 0,0
21.06.2017 22:00:00 10,7 5,7 25 13 37 20 NNE 50 0,0
21.06.2017 21:00:00 11,1 7,6 26 14 36 20 NNE 50 0,0
21.06.2017 20:00:00 12,3 8,4 6 3 22 12 W 37 0,0
21.06.2017 19:00:00 11,9 8,2 18 10 21 11 SW 47 0,0
21.06.2017 18:00:00 11,5 9,1 16 8 20 11 SSW 18 0,3
21.06.2017 17:00:00 12,0 6,9 14 7 21 11 SW 42 0,0
21.06.2017 16:00:00 11,4 7,3 15 8 22 12 SW 44 0,0
21.06.2017 15:00:00 11,0 6,7 13 7 16 9 SSW 49 0,0
21.06.2017 14:00:00 11,1 6,6 6 4 16 8 W 50 0,1
21.06.2017 13:00:00 11,2 5,5 4 2 12 6 E 40 0,0
21.06.2017 12:00:00 10,9 5,0 8 4 15 8 NNE 38 0,0
21.06.2017 11:00:00 11,2 5,1 10 5 22 12 N 25 0,0
21.06.2017 10:00:00 9,6 4,8 18 10 32 17 N 48 0,0
21.06.2017 09:00:00 9,5 3,7 23 12 38 21 N 36 0,0
21.06.2017 08:00:00 8,8 3,8 28 15 44 24 N 50 0,0
21.06.2017 07:00:00 9,1 3,1 31 17 43 23 NNW 44 0,0
21.06.2017 06:00:00 8,8 4,0 28 15 37 20 N 44 0,0
21.06.2017 05:00:00 9,0 5,2 28 15 41 22 N 38 0,0
21.06.2017 04:00:00 9,8 5,6 33 18 42 23 N 44 0,0
21.06.2017 03:00:00 10,8 7,9 35 19 41 22 NE 49 0,0
21.06.2017 02:00:00 10,9 9,8 20 11 37 20 NNW 15 1,3
21.06.2017 01:00:00 11,1 9,2 21 11 31 17 NNW 50 0,3
21.06.2017 00:00:00 11,8 8,6 16 9 29 16 NW 50 0,0
20.06.2017 23:00:00 12,1 8,9 21 11 31 17 W 50 0,0
20.06.2017 22:00:00 12,8 8,5 28 15 33 18 W 50 0,0
20.06.2017 21:00:00 13,4 9,8 5 3 23 12 SSE 32 0,0
20.06.2017 20:00:00 13,3 9,4 19 11 29 16 NE 45 0,0
20.06.2017 19:00:00 13,5 10,1 29 16 37 20 NE 44 0,0
20.06.2017 18:00:00 15,9 7,6 14 7 22 12 N 34 0,0
20.06.2017 17:00:00 17,0 7,3 15 8 26 14 WNW 46 0,0
20.06.2017 16:00:00 15,8 9,2 18 10 32 18 WNW 35 0,0
20.06.2017 15:00:00 14,9 9,7 28 15 34 18 SW 40 0,0
20.06.2017 14:00:00 14,4 8,8 23 12 29 16 SSW 41 0,0
20.06.2017 13:00:00 14,1 8,9 24 13 28 15 SSW 37 0,0
20.06.2017 12:00:00 14,7 7,3 15 8 16 9 S 42 0,0
20.06.2017 11:00:00 13,9 8,3 14 8 16 9 SW 41 0,0
20.06.2017 10:00:00 14,1 8,5 9 5 12 7 WSW 40 0,0
20.06.2017 09:00:00 13,8 9,0 13 7 19 10 W 39 0,0
20.06.2017 08:00:00 12,9 8,2 16 9 20 11 WNW 36 0,0
20.06.2017 07:00:00 12,5 7,2 15 8 24 13 WNW 45 0,0
20.06.2017 06:00:00 11,8 7,7 20 11 24 13 WNW 50 0,0
20.06.2017 05:00:00 11,4 7,3 19 10 23 12 W 48 0,0
20.06.2017 04:00:00 11,5 8,5 14 8 19 10 W 50 0,0
20.06.2017 03:00:00 11,7 8,5 16 9 21 11 W 50 0,0
20.06.2017 02:00:00 12,2 8,7 19 10 22 12 W 50 0,0
20.06.2017 01:00:00 12,5 9,5 14 8 19 10 W 50 0,0
20.06.2017 00:00:00 13,2 9,6 18 10 20 11 WSW 50 0,0
19.06.2017 23:00:00 13,1 9,7 16 9 21 11 W 50 0,0
19.06.2017 22:00:00 14,0 8,8 20 11 27 15 W 50 0,0
19.06.2017 21:00:00 14,7 9,1 22 12 26 14 W 46 0,0
19.06.2017 20:00:00 15,2 8,9 13 7 23 12 W 44 0,0
19.06.2017 19:00:00 15,2 9,5 20 11 32 17 W 43 0,0
19.06.2017 18:00:00 15,7 8,7 29 16 39 21 WSW 44 0,0
19.06.2017 17:00:00 15,9 8,1 29 16 34 19 W 50 0,0
19.06.2017 16:00:00 15,3 9,9 12 7 16 9 SW 45 0,0
19.06.2017 15:00:00 16,5 7,2 9 5 28 15 WSW 31 0,0
19.06.2017 14:00:00 16,7 8,4 17 9 25 14 WNW 40 0,0
19.06.2017 13:00:00 15,4 9,5 22 12 26 14 WSW 45 0,0
19.06.2017 12:00:00 15,9 9,1 18 10 22 12 W 39 0,0
19.06.2017 11:00:00 15,4 7,7 11 6 19 11 WSW 46 0,0
19.06.2017 10:00:00 14,4 8,8 19 10 24 13 W 46 0,0
19.06.2017 09:00:00 13,5 8,8 20 11 27 15 W 36 0,0
19.06.2017 08:00:00 13,6 7,6 22 12 32 17 WNW 43 0,0
19.06.2017 07:00:00 12,7 8,0 26 14 34 19 W 44 0,0
19.06.2017 06:00:00 12,3 7,6 30 16 36 19 W 47 0,0
19.06.2017 05:00:00 12,0 7,1 23 13 38 20 W 48 0,0
19.06.2017 04:00:00 12,4 7,9 32 17 40 22 W 49 0,0
19.06.2017 03:00:00 12,7 8,2 27 15 38 20 W 50 0,0
19.06.2017 02:00:00 13,2 7,2 31 17 43 23 W 50 0,0
19.06.2017 01:00:00 13,7 7,0 35 19 50 27 W 50 0,0
19.06.2017 00:00:00 14,2 8,6 29 16 40 21 W 50 0,0
18.06.2017 23:00:00 15,0 8,7 35 19 40 22 W 50 0,0
18.06.2017 22:00:00 15,4 9,5 29 16 35 19 W 50 0,0
18.06.2017 21:00:00 16,0 10,3 29 16 37 20 W 50 0,0
18.06.2017 20:00:00 15,7 10,5 34 18 38 21 W 50 0,0
18.06.2017 19:00:00 17,1 9,8 20 11 50 27 NW 50 0,0
18.06.2017 18:00:00 17,2 10,1 35 19 40 22 W 45 0,0
18.06.2017 17:00:00 16,7 11,0 21 12 29 16 WSW 50 0,0
18.06.2017 16:00:00 16,5 12,3 13 7 26 14 W 26 0,0
18.06.2017 15:00:00 16,6 11,7 16 9 24 13 WNW 50 0,0
18.06.2017 14:00:00 18,0 11,1 21 12 29 16 WNW 48 0,0
18.06.2017 13:00:00 15,6 11,2 21 11 24 13 WSW 50 0,0
18.06.2017 12:00:00 15,4 11,6 18 10 23 12 W 48 0,0
18.06.2017 11:00:00 15,3 11,3 13 7 24 13 WSW 45 0,0
18.06.2017 10:00:00 15,0 11,4 14 7 25 14 WSW 43 0,0
18.06.2017 09:00:00 14,2 11,5 22 12 26 14 WSW 46 0,0
18.06.2017 08:00:00 13,9 11,9 22 12 29 15 WSW 26 0,0
18.06.2017 07:00:00 13,3 12,4 24 13 28 15 WSW 50 0,0
18.06.2017 06:00:00 13,3 13,3 17 9 29 16 W 19 0,8
18.06.2017 05:00:00 13,5 13,5 29 16 36 19 WSW 16 0,8

tt = temperature
td = dewpoint
ff = wind speed
fx = gusts
dd = wind direction
vv = visibility
rr = precipitation

Next stations